sensor_id;sensor_type;location;lat;lon;timestamp;P1;durP1;ratioP1;P2;durP2;ratioP2
21743;SDS011;11034;48.556;9.342;2023-06-10T06:02:39;7.03;;;5.78;;
21743;SDS011;11034;48.556;9.342;2023-06-10T06:05:07;6.35;;;5.75;;
21743;SDS011;11034;48.556;9.342;2023-06-10T06:07:36;6.63;;;5.93;;
21743;SDS011;11034;48.556;9.342;2023-06-10T06:10:04;7.13;;;6.15;;
21743;SDS011;11034;48.556;9.342;2023-06-10T06:12:33;7.68;;;6.35;;
21743;SDS011;11034;48.556;9.342;2023-06-10T06:15:01;7.15;;;5.82;;
21743;SDS011;11034;48.556;9.342;2023-06-10T06:17:30;7.65;;;6.20;;
21743;SDS011;11034;48.556;9.342;2023-06-10T06:19:59;7.75;;;7.05;;
21743;SDS011;11034;48.556;9.342;2023-06-10T06:22:27;7.70;;;6.90;;
21743;SDS011;11034;48.556;9.342;2023-06-10T06:24:56;11.23;;;10.15;;
21743;SDS011;11034;48.556;9.342;2023-06-10T06:27:24;10.82;;;9.82;;
21743;SDS011;11034;48.556;9.342;2023-06-10T06:29:52;7.43;;;6.07;;
21743;SDS011;11034;48.556;9.342;2023-06-10T06:32:20;6.45;;;5.85;;
21743;SDS011;11034;48.556;9.342;2023-06-10T06:34:51;6.38;;;5.78;;
21743;SDS011;11034;48.556;9.342;2023-06-10T06:37:22;6.43;;;5.82;;
21743;SDS011;11034;48.556;9.342;2023-06-10T06:39:51;9.25;;;7.80;;
21743;SDS011;11034;48.556;9.342;2023-06-10T06:42:20;7.47;;;6.78;;
21743;SDS011;11034;48.556;9.342;2023-06-10T06:44:48;7.18;;;6.47;;
21743;SDS011;11034;48.556;9.342;2023-06-10T06:47:16;6.82;;;6.15;;
21743;SDS011;11034;48.556;9.342;2023-06-10T06:49:46;8.13;;;6.80;;
21743;SDS011;11034;48.556;9.342;2023-06-10T06:52:15;8.70;;;6.07;;
21743;SDS011;11034;48.556;9.342;2023-06-10T06:54:44;8.95;;;8.07;;
21743;SDS011;11034;48.556;9.342;2023-06-10T06:57:12;6.50;;;5.90;;
21743;SDS011;11034;48.556;9.342;2023-06-10T06:59:40;6.32;;;5.82;;
21743;SDS011;11034;48.556;9.342;2023-06-10T07:02:08;6.78;;;6.03;;
21743;SDS011;11034;48.556;9.342;2023-06-10T07:04:36;6.47;;;5.82;;
21743;SDS011;11034;48.556;9.342;2023-06-10T07:07:07;6.80;;;6.10;;
21743;SDS011;11034;48.556;9.342;2023-06-10T07:09:35;7.65;;;6.30;;
21743;SDS011;11034;48.556;9.342;2023-06-10T07:12:06;6.28;;;5.70;;
21743;SDS011;11034;48.556;9.342;2023-06-10T07:14:35;8.48;;;6.07;;
21743;SDS011;11034;48.556;9.342;2023-06-10T07:17:03;6.72;;;6.05;;
21743;SDS011;11034;48.556;9.342;2023-06-10T07:19:31;7.05;;;5.88;;
21743;SDS011;11034;48.556;9.342;2023-06-10T07:21:59;6.90;;;6.25;;
21743;SDS011;11034;48.556;9.342;2023-06-10T07:24:27;8.80;;;6.10;;
21743;SDS011;11034;48.556;9.342;2023-06-10T07:26:55;6.90;;;5.90;;
21743;SDS011;11034;48.556;9.342;2023-06-10T07:29:25;7.53;;;6.50;;
21743;SDS011;11034;48.556;9.342;2023-06-10T07:31:53;7.50;;;6.60;;
21743;SDS011;11034;48.556;9.342;2023-06-10T07:34:21;6.65;;;5.95;;
21743;SDS011;11034;48.556;9.342;2023-06-10T07:36:49;6.63;;;5.95;;
21743;SDS011;11034;48.556;9.342;2023-06-10T07:39:17;6.55;;;5.72;;
21743;SDS011;11034;48.556;9.342;2023-06-10T07:41:45;9.50;;;6.10;;
21743;SDS011;11034;48.556;9.342;2023-06-10T07:44:15;7.03;;;6.35;;
21743;SDS011;11034;48.556;9.342;2023-06-10T07:46:44;9.55;;;6.20;;
21743;SDS011;11034;48.556;9.342;2023-06-10T07:49:12;6.63;;;6.00;;
21743;SDS011;11034;48.556;9.342;2023-06-10T07:51:40;8.45;;;5.60;;
21743;SDS011;11034;48.556;9.342;2023-06-10T07:54:08;6.80;;;6.10;;
21743;SDS011;11034;48.556;9.342;2023-06-10T07:56:38;7.30;;;6.20;;
21743;SDS011;11034;48.556;9.342;2023-06-10T07:59:06;7.10;;;5.95;;
21743;SDS011;11034;48.556;9.342;2023-06-10T16:02:34;8.18;;;4.70;;
21743;SDS011;11034;48.556;9.342;2023-06-10T16:05:03;5.32;;;4.80;;
21743;SDS011;11034;48.556;9.342;2023-06-10T16:07:32;5.30;;;4.80;;
21743;SDS011;11034;48.556;9.342;2023-06-10T16:10:00;5.57;;;4.65;;
21743;SDS011;11034;48.556;9.342;2023-06-10T16:12:28;5.75;;;4.50;;
21743;SDS011;11034;48.556;9.342;2023-06-10T16:14:56;5.53;;;4.28;;
21743;SDS011;11034;48.556;9.342;2023-06-10T16:17:24;5.32;;;4.45;;
21743;SDS011;11034;48.556;9.342;2023-06-10T16:19:54;5.63;;;4.60;;
21743;SDS011;11034;48.556;9.342;2023-06-10T16:22:22;4.82;;;4.30;;
21743;SDS011;11034;48.556;9.342;2023-06-10T16:24:50;6.13;;;4.60;;
21743;SDS011;11034;48.556;9.342;2023-06-10T16:27:18;4.60;;;4.20;;
21743;SDS011;11034;48.556;9.342;2023-06-10T16:29:46;4.72;;;4.30;;
21743;SDS011;11034;48.556;9.342;2023-06-10T16:32:14;6.55;;;4.05;;
21743;SDS011;11034;48.556;9.342;2023-06-10T16:34:42;4.68;;;4.28;;
21743;SDS011;11034;48.556;9.342;2023-06-10T16:37:12;6.63;;;4.13;;
21743;SDS011;11034;48.556;9.342;2023-06-10T16:39:40;4.47;;;4.05;;
21743;SDS011;11034;48.556;9.342;2023-06-10T16:42:08;5.43;;;3.90;;
21743;SDS011;11034;48.556;9.342;2023-06-10T16:44:36;4.55;;;4.15;;
21743;SDS011;11034;48.556;9.342;2023-06-10T16:47:05;4.80;;;4.30;;
21743;SDS011;11034;48.556;9.342;2023-06-10T16:49:33;5.15;;;4.07;;
21743;SDS011;11034;48.556;9.342;2023-06-10T16:52:02;3.90;;;3.50;;
21743;SDS011;11034;48.556;9.342;2023-06-10T16:54:32;4.50;;;3.67;;
21743;SDS011;11034;48.556;9.342;2023-06-10T16:57:00;4.90;;;3.97;;
21743;SDS011;11034;48.556;9.342;2023-06-10T16:59:28;5.90;;;3.88;;
21743;SDS011;11034;48.556;9.342;2023-06-10T17:01:56;3.97;;;3.60;;
21743;SDS011;11034;48.556;9.342;2023-06-10T17:04:28;4.90;;;4.20;;
21743;SDS011;11034;48.556;9.342;2023-06-10T17:06:56;3.90;;;3.50;;
21743;SDS011;11034;48.556;9.342;2023-06-10T17:09:25;4.45;;;4.05;;
21743;SDS011;11034;48.556;9.342;2023-06-10T17:11:55;6.22;;;4.05;;
21743;SDS011;11034;48.556;9.342;2023-06-10T17:14:23;4.45;;;4.05;;
21743;SDS011;11034;48.556;9.342;2023-06-10T17:16:51;4.68;;;4.18;;
21743;SDS011;11034;48.556;9.342;2023-06-10T17:19:20;6.10;;;4.43;;
21743;SDS011;11034;48.556;9.342;2023-06-10T17:21:48;6.00;;;4.30;;
21743;SDS011;11034;48.556;9.342;2023-06-10T17:24:16;4.90;;;4.47;;
21743;SDS011;11034;48.556;9.342;2023-06-10T17:26:44;6.28;;;4.28;;
21743;SDS011;11034;48.556;9.342;2023-06-10T17:29:14;5.88;;;4.22;;
21743;SDS011;11034;48.556;9.342;2023-06-10T17:31:42;4.25;;;3.90;;
21743;SDS011;11034;48.556;9.342;2023-06-10T17:34:13;5.00;;;4.47;;
21743;SDS011;11034;48.556;9.342;2023-06-10T17:36:41;5.28;;;4.70;;
21743;SDS011;11034;48.556;9.342;2023-06-10T17:39:10;6.40;;;4.38;;
21743;SDS011;11034;48.556;9.342;2023-06-10T17:41:39;6.07;;;4.78;;
21743;SDS011;11034;48.556;9.342;2023-06-10T17:44:07;5.30;;;4.80;;
21743;SDS011;11034;48.556;9.342;2023-06-10T17:46:36;6.43;;;5.75;;
21743;SDS011;11034;48.556;9.342;2023-06-10T17:49:04;6.07;;;5.43;;
21743;SDS011;11034;48.556;9.342;2023-06-10T17:51:32;6.93;;;5.40;;
21743;SDS011;11034;48.556;9.342;2023-06-10T17:54:01;5.90;;;5.40;;
21743;SDS011;11034;48.556;9.342;2023-06-10T17:56:29;5.80;;;5.30;;
21743;SDS011;11034;48.556;9.342;2023-06-10T17:58:57;6.65;;;4.90;;
